METAR Data
IDs: Format: Raw Decoded Include TAF

Data at: 0833 UTC 07 Dec 2021

K54J 070715Z AUTO 00000KT 10SM CLR 15/15 A3005 RMK AO2 T01520146
K54J 070655Z AUTO 00000KT 10SM BKN011 16/15 A3004 RMK AO2 T01570151
K54J 070635Z AUTO 00000KT 10SM BKN011 16/15 A3005 RMK AO2 T01600154
K54J 070615Z AUTO 00000KT 10SM SCT007 16/15 A3005 RMK AO2 T01590152
K54J 070555Z AUTO 00000KT 10SM BKN007 16/16 A3006 RMK AO2 T01620155 10185 20162
K54J 070535Z AUTO 00000KT 10SM SCT007 SCT120 16/16 A3005 RMK AO2 T01630155
K54J 070455Z AUTO 00000KT 10SM OVC110 17/16 A3004 RMK AO2 T01650157 402360143
K54J 070435Z AUTO 00000KT 10SM BKN110 17/16 A3005 RMK AO2 T01670157
K54J 070415Z AUTO 00000KT 10SM BKN009 BKN060 BKN120 17/16 A3007 RMK AO2 T01700160
K54J 070355Z AUTO 00000KT 10SM SCT004 OVC009 17/17 A3008 RMK AO2 T01710165
K54J 070335Z AUTO 00000KT 10SM SCT004 SCT007 OVC060 17/17 A3008 RMK AO2 T01710165
K54J 070315Z AUTO 00000KT 10SM BKN009 BKN055 BKN070 17/17 A3008 RMK AO2 T01710165
K54J 070255Z AUTO 00000KT 10SM OVC007 17/17 A3009 RMK AO2 T01720165
K54J 070215Z AUTO 00000KT 10SM OVC009 17/17 A3010 RMK AO2 T01730165
K54J 070155Z AUTO 00000KT 10SM BKN007 OVC080 17/17 A3010 RMK AO2 T01740165
K54J 070135Z AUTO 00000KT 10SM -DZ SCT007 OVC080 18/16 A3010 RMK AO2 T01750164
K54J 070115Z AUTO 00000KT 10SM SCT008 OVC090 18/16 A3009 RMK AO2 T01760163
K54J 070055Z AUTO 30005KT 10SM SCT013 OVC090 18/16 A3009 RMK AO2 T01780163
K54J 070035Z AUTO 30007KT 10SM SCT013 OVC090 18/16 A3008 RMK AO2 T01800163
K54J 070015Z AUTO 31008G14KT 10SM OVC100 18/16 A3007 RMK AO2 T01820162
K54J 062355Z AUTO 29008KT 10SM SCT011 OVC100 19/17 A3006 RMK AO2 T01850165 10235 20185
K54J 062335Z AUTO 30009G16KT 10SM -RA SCT008 BKN019 OVC120 20/18 A3006 RMK AO2 T02000176
K54J 062315Z AUTO 00000KT 10SM SCT009 BKN034 OVC090 21/20 A3004 RMK AO2 T02110196
K54J 062255Z AUTO 00000KT 10SM BKN009 BKN028 OVC075 21/20 A3005 RMK AO2 T02130196
K54J 062235Z AUTO 00000KT 10SM BKN011 BKN034 OVC085 22/20 A3004 RMK AO2 LTG DSNT W AND NW T02160195
K54J 062215Z AUTO 00000KT 10SM BKN013 BKN095 OVC110 22/19 A3003 RMK AO2 LTG DSNT N T02190194
K54J 062155Z AUTO 00000KT 10SM BKN013 BKN030 BKN095 22/19 A3003 RMK AO2 LTG DSNT N T02200193
K54J 062135Z AUTO 00000KT 10SM BKN016 BKN030 OVC095 22/19 A3003 RMK AO2 LTG DSNT NW T02210192
K54J 062115Z AUTO 00000KT 10SM BKN016 BKN095 22/19 A3002 RMK AO2 T02230191
K54J 062055Z AUTO 00000KT 10SM SCT016 BKN023 BKN029 23/19 A3002 RMK AO2 T02250190
K54J 062035Z AUTO 21005KT 10SM SCT016 BKN023 BKN029 23/19 A3002 RMK AO2 T02250189
K54J 062015Z AUTO 00000KT 10SM BKN020 23/19 A3003 RMK AO2 T02250187
K54J 061955Z AUTO 00000KT 10SM SCT020 23/19 A3002 RMK AO2 T02260185
K54J 061935Z AUTO 20003KT 10SM SCT023 SCT031 23/19 A3002 RMK AO2 T02330185
K54J 061915Z AUTO 00000KT 10SM SCT023 BKN032 BKN040 23/18 A3004 RMK AO2 T02300181
K54J 061855Z AUTO 00000KT 10SM SCT025 BKN030 BKN041 23/18 A3004 RMK AO2 T02280181
K54J 061835Z AUTO 00000KT 10SM BKN025 OVC032 23/18 A3005 RMK AO2 T02300181
K54J 061815Z AUTO 00000KT 10SM BKN022 OVC030 23/18 A3005 RMK AO2 T02260180
K54J 061755Z AUTO 00000KT 10SM OVC024 23/18 A3005 RMK AO2 T02300180 10236 20153
K54J 061735Z AUTO 20007KT 170V250 10SM OVC024 24/18 A3006 RMK AO2 LTG DSNT W T02350181
K54J 061715Z AUTO 00000KT 10SM OVC024 23/18 A3007 RMK AO2 T02280182
K54J 061655Z AUTO 00000KT 10SM BKN022 OVC030 23/18 A3008 RMK AO2 T02250180
K54J 061635Z AUTO 21005KT 10SM BKN022 OVC029 23/18 A3009 RMK AO2 T02260181
K54J 061615Z AUTO 00000KT 10SM SCT022 SCT027 22/19 A3010 RMK AO2 T02220188
K54J 061555Z AUTO 00000KT 10SM CLR 21/18 A3010 RMK AO2 LTG DSNT W T02060182
K54J 061535Z AUTO 00000KT 10SM SCT019 20/18 A3010 RMK AO2 T02020181
K54J 061515Z AUTO 00000KT 10SM SCT019 20/18 A3011 RMK AO2 LTG DSNT NW T01970178
K54J 061455Z AUTO 00000KT 10SM SCT008 SCT018 19/18 A3011 RMK AO2 T01940180
K54J 061435Z AUTO 00000KT 10SM CLR 19/19 A3010 RMK AO2 T01880185
K54J 061415Z AUTO 00000KT 10SM SCT003 18/18 A3008 RMK AO2 LTG DSNT NW T01800177
K54J 061355Z AUTO 00000KT 2 1/2SM BR OVC003 17/17 A3008 RMK AO2 T01700167
K54J 061335Z AUTO 00000KT 3SM BR OVC003 17/16 A3008 RMK AO2 LTG DSNT NW T01650163
K54J 061315Z AUTO 00000KT 1 3/4SM BR OVC003 16/16 A3009 RMK AO2 T01610160
K54J 061255Z AUTO 00000KT 3/4SM BR OVC003 16/15 A3009 RMK AO2 T01560154
K54J 061235Z AUTO 00000KT 1 1/2SM BR SCT003 16/15 A3009 RMK AO2 T01550153
K54J 061215Z AUTO 00000KT 2 1/2SM BR CLR 15/15 A3009 RMK AO2 T01540151
K54J 061155Z AUTO 00000KT 1 1/4SM BR SCT004 SCT023 15/15 A3008 RMK AO2 LTG DSNT NW T01540151 10160 20143
K54J 061135Z AUTO 00000KT 1 1/2SM BR SCT023 SCT027 15/15 A3008 RMK AO2 T01510148
K54J 061115Z AUTO 00000KT 2SM BR SCT025 BKN090 16/15 A3008 RMK AO2 T01550152
K54J 061055Z AUTO 00000KT 4SM BR SCT023 SCT028 BKN090 16/15 A3008 RMK AO2 T01570154
K54J 061035Z AUTO 00000KT 3SM BR SCT003 SCT018 SCT026 16/16 A3009 RMK AO2 LTG DSNT NW T01570155
K54J 061015Z AUTO 00000KT 4SM BR SCT020 16/16 A3008 RMK AO2 T01590156
K54J 060955Z AUTO 00000KT 3SM BR SCT003 SCT020 16/16 A3008 RMK AO2 T01580155
K54J 060935Z AUTO 00000KT 5SM BR BKN003 16/16 A3008 RMK AO2 T01600156
K54J 060915Z AUTO 00000KT 5SM BR BKN001 16/16 A3008 RMK AO2 T01600156
K54J 060855Z AUTO 00000KT 7SM OVC001 16/16 A3008 RMK AO2 T01600157
K54J 060835Z AUTO 00000KT 7SM BKN001 16/16 A3008 RMK AO2 T01590155
K54J 060815Z AUTO 00000KT 4SM BR SCT003 16/15 A3008 RMK AO2 T01560153
K54J 060755Z AUTO 00000KT 4SM BR CLR 16/15 A3009 RMK AO2 T01550151
K54J 060735Z AUTO 00000KT 2 1/2SM BR SCT002 15/15 A3010 RMK AO2 T01510148
K54J 060715Z AUTO 00000KT 1/2SM FG BKN002 BKN017 15/15 A3009 RMK AO2 T01470145
K54J 060655Z AUTO 00000KT 3/4SM BR OVC002 15/15 A3010 RMK AO2 T01490146
K54J 060635Z AUTO 00000KT 1/2SM FG OVC002 14/14 A3010 RMK AO2 T01430140
K54J 060615Z AUTO 00000KT 1/4SM FG OVC002 15/14 A3010 RMK AO2 T01460143
K54J 060555Z AUTO 00000KT 1/4SM FG OVC002 15/15 A3010 RMK AO2 T01510148 10176 20145
K54J 060535Z AUTO 00000KT 1/2SM FG OVC002 15/15 A3010 RMK AO2 T01500146
K54J 060515Z AUTO 00000KT 4SM BR SCT002 15/14 A3011 RMK AO2 T01460142
K54J 060455Z AUTO 00000KT 10SM CLR 15/14 A3012 RMK AO2 T01500143 402270114
K54J 060435Z AUTO 00000KT 10SM CLR 15/14 A3012 RMK AO2 T01490143
K54J 060415Z AUTO 00000KT 10SM SCT110 15/14 A3012 RMK AO2 T01460138
K54J 060355Z AUTO 00000KT 10SM SCT110 15/14 A3013 RMK AO2 T01510140
K54J 060335Z AUTO 00000KT 10SM CLR 16/14 A3013 RMK AO2 T01550140
K54J 060315Z AUTO 00000KT 10SM CLR 16/14 A3013 RMK AO2 T01550138
K54J 060255Z AUTO 00000KT 10SM CLR 15/14 A3012 RMK AO2 T01510135
K54J 060235Z AUTO 00000KT 10SM CLR 16/14 A3013 RMK AO2 T01550135
K54J 060215Z AUTO 00000KT 10SM CLR 15/13 A3012 RMK AO2 T01530133
K54J 060155Z AUTO 00000KT 10SM CLR 15/13 A3012 RMK AO2 T01540132
K54J 060135Z AUTO 00000KT 10SM CLR 16/13 A3012 RMK AO2 T01550131
K54J 060115Z AUTO 00000KT 10SM CLR 16/14 A3012 RMK AO2 T01570136
K54J 060055Z AUTO 00000KT 10SM SCT034 17/13 A3012 RMK AO2 T01650134
K54J 060035Z AUTO 00000KT 10SM SCT025 SCT040 17/14 A3012 RMK AO2 T01680135
K54J 060015Z AUTO 00000KT 10SM BKN025 OVC040 17/14 A3012 RMK AO2 T01710138
K54J 052355Z AUTO 00000KT 10SM BKN025 BKN041 18/14 A3012 RMK AO2 T01760140 10227 20171
K54J 052335Z AUTO 00000KT 10SM SCT025 SCT041 17/14 A3012 RMK AO2 T01730142
K54J 052315Z AUTO 00000KT 10SM CLR 17/15 A3010 RMK AO2 T01710147
K54J 052255Z AUTO 00000KT 10SM CLR 18/15 A3010 RMK AO2 T01820148
K54J 052235Z AUTO 00000KT 10SM CLR 19/15 A3010 RMK AO2 T01900150
K54J 052215Z AUTO 00000KT 10SM SCT045 20/15 A3009 RMK AO2 T01970152
K54J 052155Z AUTO 00000KT 10SM BKN045 21/15 A3009 RMK AO2 T02080150
K54J 052135Z AUTO 00000KT 10SM SCT026 SCT045 21/15 A3008 RMK AO2 T02080152
K54J 052115Z AUTO 00000KT 10SM SCT026 SCT031 SCT045 21/16 A3009 RMK AO2 T02140158
K54J 052055Z AUTO 00000KT 10SM SCT026 SCT031 BKN050 23/16 A3008 RMK AO2 T02250155
K54J 052035Z AUTO 00000KT 10SM SCT028 BKN050 22/15 A3009 RMK AO2 T02210154